createdAt,value
2023-01-29T00:01:56.445Z,15.45
2023-01-29T00:04:24.022Z,40.30
2023-01-29T00:06:51.031Z,25.30
2023-01-29T00:09:18.787Z,21.08
2023-01-29T00:11:45.762Z,21.92
2023-01-29T00:14:12.724Z,23.80
2023-01-29T00:16:39.863Z,22.15
2023-01-29T00:19:07.113Z,20.33
2023-01-29T00:21:34.276Z,18.23
2023-01-29T00:24:01.329Z,24.88
2023-01-29T00:26:29.010Z,22.58
2023-01-29T00:29:00.678Z,21.83
2023-01-29T00:31:28.018Z,19.55
2023-01-29T00:33:55.120Z,24.88
2023-01-29T00:36:23.288Z,16.90
2023-01-29T00:38:59.107Z,17.13
2023-01-29T00:41:52.135Z,17.25
2023-01-29T00:44:37.585Z,20.27
2023-01-29T00:47:26.018Z,18.98
2023-01-29T00:49:53.214Z,16.25
2023-01-29T00:52:25.975Z,16.65
2023-01-29T00:54:58.204Z,16.17
2023-01-29T00:57:27.234Z,17.40
2023-01-29T00:59:54.408Z,15.82
2023-01-29T01:02:40.869Z,15.70
2023-01-29T01:05:14.003Z,14.02
2023-01-29T01:07:41.630Z,14.82
2023-01-29T01:10:21.647Z,14.93
2023-01-29T01:12:59.333Z,15.45
2023-01-29T01:15:29.269Z,15.35
2023-01-29T01:17:58.877Z,17.52
2023-01-29T01:20:28.917Z,18.10
2023-01-29T01:22:56.347Z,13.85
2023-01-29T01:25:24.916Z,18.48
2023-01-29T01:27:56.689Z,17.00
2023-01-29T01:30:24.669Z,13.70
2023-01-29T01:32:51.795Z,15.45
2023-01-29T01:35:19.118Z,18.92
2023-01-29T01:37:46.172Z,14.80
2023-01-29T01:40:24.268Z,15.15
2023-01-29T01:42:55.456Z,17.67
2023-01-29T01:45:33.429Z,16.60
2023-01-29T01:48:15.501Z,17.90
2023-01-29T01:50:50.835Z,18.83
2023-01-29T01:53:25.735Z,15.48
2023-01-29T01:56:03.436Z,15.90
2023-01-29T01:58:59.633Z,16.40
2023-01-29T02:01:28.416Z,20.45
2023-01-29T02:04:28.050Z,20.00
2023-01-29T02:07:15.660Z,19.45
2023-01-29T02:09:49.142Z,14.00
2023-01-29T02:12:17.129Z,16.15
2023-01-29T02:14:44.869Z,16.23
2023-01-29T02:17:14.812Z,16.45
2023-01-29T02:20:14.905Z,19.00
2023-01-29T02:23:23.313Z,20.88
2023-01-29T02:26:09.166Z,14.32
2023-01-29T02:29:22.692Z,19.38
2023-01-29T02:32:09.490Z,12.68
2023-01-29T02:35:09.265Z,18.73
2023-01-29T02:37:48.907Z,13.90
2023-01-29T02:40:31.451Z,17.02
2023-01-29T02:43:29.126Z,14.35
2023-01-29T02:46:16.062Z,20.83
2023-01-29T02:49:01.022Z,15.25
2023-01-29T02:52:03.354Z,16.95
2023-01-29T02:54:33.260Z,19.33
2023-01-29T02:57:15.044Z,19.45
2023-01-29T02:59:51.742Z,19.27
2023-01-29T03:02:36.016Z,15.25
2023-01-29T03:05:08.549Z,37.25
2023-01-29T03:07:41.326Z,24.17
2023-01-29T03:10:18.355Z,21.60
2023-01-29T03:12:52.128Z,17.98
2023-01-29T03:15:27.305Z,24.08
2023-01-29T03:18:22.529Z,19.02
2023-01-29T03:20:58.460Z,13.95
2023-01-29T03:23:47.897Z,13.57
2023-01-29T03:26:38.975Z,15.27
2023-01-29T03:29:27.665Z,22.13
2023-01-29T03:32:09.440Z,14.75
2023-01-29T03:34:46.762Z,20.23
2023-01-29T03:37:23.249Z,16.75
2023-01-29T03:39:50.342Z,13.77
2023-01-29T03:42:38.468Z,20.33
2023-01-29T03:45:28.061Z,16.30
2023-01-29T03:48:12.194Z,18.75
2023-01-29T03:51:00.649Z,14.55
2023-01-29T03:53:46.410Z,17.55
2023-01-29T03:56:41.918Z,15.25
2023-01-29T03:59:31.527Z,15.73
2023-01-29T04:02:28.059Z,13.77
2023-01-29T04:05:02.255Z,16.15
2023-01-29T04:07:33.590Z,16.30
2023-01-29T04:12:52.586Z,19.65
2023-01-29T04:15:22.461Z,16.88
2023-01-29T04:17:52.879Z,15.05
2023-01-29T04:20:32.265Z,17.85
2023-01-29T04:23:00.113Z,19.25
2023-01-29T04:25:32.653Z,16.60
2023-01-29T04:28:15.340Z,21.58
2023-01-29T04:30:46.390Z,14.60
2023-01-29T04:33:41.124Z,17.73
2023-01-29T04:36:14.495Z,16.02
2023-01-29T04:39:05.743Z,18.33
2023-01-29T04:41:55.855Z,17.33
2023-01-29T04:44:49.916Z,15.50
2023-01-29T04:47:20.183Z,18.67
2023-01-29T04:49:49.640Z,17.70
2023-01-29T04:52:45.175Z,18.60
2023-01-29T04:55:37.040Z,19.15
2023-01-29T04:58:14.539Z,20.98
2023-01-29T05:00:44.427Z,18.90
2023-01-29T05:03:15.927Z,15.88
2023-01-29T05:05:48.113Z,20.02
2023-01-29T05:08:19.524Z,16.92
2023-01-29T05:10:49.667Z,19.63
2023-01-29T05:13:19.527Z,17.25
2023-01-29T05:16:19.289Z,17.30
2023-01-29T05:18:46.895Z,19.65
2023-01-29T05:21:13.859Z,20.75
2023-01-29T05:23:53.406Z,15.88
2023-01-29T05:26:39.773Z,17.00
2023-01-29T05:29:06.753Z,17.33
2023-01-29T05:31:33.747Z,20.02
2023-01-29T05:34:00.715Z,17.02
2023-01-29T05:36:27.772Z,29.75
2023-01-29T05:38:54.728Z,18.70
2023-01-29T05:41:21.663Z,19.77
2023-01-29T05:43:48.612Z,18.63
2023-01-29T05:46:15.567Z,20.27
2023-01-29T05:48:42.524Z,24.42
2023-01-29T05:51:09.560Z,15.77
2023-01-29T05:53:36.612Z,17.40
2023-01-29T05:56:04.738Z,20.23
2023-01-29T05:58:32.888Z,20.90
2023-01-29T06:01:12.291Z,23.95
2023-01-29T06:03:39.288Z,22.23
2023-01-29T06:06:06.701Z,19.45
2023-01-29T06:08:33.780Z,22.33
2023-01-29T06:11:00.887Z,20.20
2023-01-29T06:13:27.839Z,23.40
2023-01-29T06:15:55.872Z,24.20
2023-01-29T06:18:22.768Z,21.98
2023-01-29T06:20:49.699Z,20.17
2023-01-29T06:23:16.825Z,20.77
2023-01-29T06:25:43.878Z,23.27
2023-01-29T06:28:10.814Z,25.73
2023-01-29T06:30:37.748Z,19.65
2023-01-29T06:33:04.660Z,22.77
2023-01-29T06:35:31.574Z,21.30
2023-01-29T06:37:58.471Z,25.02
2023-01-29T06:40:26.228Z,20.13
2023-01-29T06:42:53.101Z,22.33
2023-01-29T06:45:20.069Z,25.02
2023-01-29T06:47:47.027Z,19.98
2023-01-29T06:50:14.086Z,24.02
2023-01-29T06:52:41.114Z,21.42
2023-01-29T06:55:08.543Z,25.23
2023-01-29T06:57:35.531Z,23.05
2023-01-29T07:00:02.433Z,27.75
2023-01-29T07:02:29.478Z,21.30
2023-01-29T07:04:56.407Z,23.08
2023-01-29T07:07:23.333Z,28.50
2023-01-29T07:09:50.317Z,23.02
2023-01-29T07:12:17.254Z,17.77
2023-01-29T07:14:44.199Z,28.40
2023-01-29T07:17:11.116Z,24.50
2023-01-29T07:19:38.047Z,23.77
2023-01-29T07:22:05.784Z,24.42
2023-01-29T07:24:33.050Z,21.23
2023-01-29T07:26:59.973Z,22.65
2023-01-29T07:29:27.028Z,26.55
2023-01-29T07:31:53.996Z,27.33
2023-01-29T07:34:21.018Z,23.85
2023-01-29T07:36:48.018Z,26.02
2023-01-29T07:39:15.031Z,21.27
2023-01-29T07:41:42.063Z,25.23
2023-01-29T07:44:16.296Z,23.63
2023-01-29T07:46:43.738Z,27.00
2023-01-29T07:49:10.691Z,29.67
2023-01-29T07:51:37.626Z,24.38
2023-01-29T07:54:05.232Z,27.40
2023-01-29T07:56:35.887Z,23.17
2023-01-29T07:59:03.574Z,23.50
2023-01-29T08:01:31.528Z,24.10
2023-01-29T08:03:58.923Z,27.13
2023-01-29T08:06:26.032Z,23.50
2023-01-29T08:08:53.683Z,25.02
2023-01-29T08:11:20.742Z,19.77
2023-01-29T08:13:47.764Z,26.55
2023-01-29T08:16:14.872Z,24.65
2023-01-29T08:18:46.331Z,26.20
2023-01-29T08:21:15.032Z,17.77
2023-01-29T08:23:41.960Z,20.52
2023-01-29T08:26:09.301Z,21.02
2023-01-29T08:28:38.719Z,23.00
2023-01-29T08:31:13.895Z,24.65
2023-01-29T08:33:40.817Z,24.63
2023-01-29T08:36:08.986Z,23.08
2023-01-29T08:38:36.317Z,20.92
2023-01-29T08:41:03.607Z,22.58
2023-01-29T08:43:30.695Z,25.13
2023-01-29T08:45:57.665Z,26.70
2023-01-29T08:48:25.261Z,40.13
2023-01-29T08:50:52.182Z,36.40
2023-01-29T08:53:24.379Z,34.75
2023-01-29T08:55:51.774Z,30.90
2023-01-29T08:58:19.084Z,30.25
2023-01-29T09:00:46.815Z,24.98
2023-01-29T09:03:14.153Z,26.40
2023-01-29T09:05:41.983Z,25.92
2023-01-29T09:08:09.983Z,30.40
2023-01-29T09:10:37.152Z,25.02
2023-01-29T09:13:04.923Z,27.70
2023-01-29T09:15:32.019Z,27.88
2023-01-29T09:18:02.419Z,23.83
2023-01-29T09:20:29.323Z,21.77
2023-01-29T09:22:56.787Z,19.50
2023-01-29T09:25:23.788Z,20.38
2023-01-29T09:27:50.836Z,19.90
2023-01-29T09:30:18.377Z,20.67
2023-01-29T09:32:54.139Z,22.33
2023-01-29T09:35:25.053Z,19.52
2023-01-29T09:37:52.570Z,26.13
2023-01-29T09:40:42.761Z,22.88
2023-01-29T09:43:18.658Z,21.60
2023-01-29T09:46:15.291Z,17.02
2023-01-29T09:48:44.269Z,14.45
2023-01-29T09:51:23.798Z,15.30
2023-01-29T09:54:18.323Z,13.35
2023-01-29T09:56:46.448Z,14.35
2023-01-29T09:59:15.192Z,14.38
2023-01-29T10:02:08.217Z,15.60
2023-01-29T10:05:04.842Z,12.85
2023-01-29T10:08:00.733Z,14.05
2023-01-29T10:10:40.222Z,13.48
2023-01-29T10:13:32.865Z,12.70
2023-01-29T10:16:07.828Z,12.77
2023-01-29T10:19:07.939Z,16.13
2023-01-29T10:21:56.355Z,13.10
2023-01-29T10:24:50.230Z,14.70
2023-01-29T10:27:18.951Z,16.10
2023-01-29T10:29:49.170Z,12.52
2023-01-29T10:32:19.024Z,13.23
2023-01-29T10:34:52.365Z,13.05
2023-01-29T10:37:40.740Z,12.57
2023-01-29T10:40:34.153Z,14.25
2023-01-29T10:43:10.463Z,13.00
2023-01-29T10:45:42.311Z,13.20
2023-01-29T10:48:27.856Z,11.75
2023-01-29T10:53:59.488Z,13.07
2023-01-29T10:56:41.380Z,13.98
2023-01-29T10:59:45.197Z,13.90
2023-01-29T11:02:21.258Z,14.20
2023-01-29T11:04:48.911Z,13.10
2023-01-29T11:07:19.753Z,16.05
2023-01-29T11:10:09.784Z,16.20
2023-01-29T11:12:38.839Z,13.52
2023-01-29T11:15:19.867Z,14.10
2023-01-29T11:18:16.189Z,12.73
2023-01-29T11:20:44.696Z,12.55
2023-01-29T11:23:31.909Z,14.57
2023-01-29T11:26:00.350Z,14.63
2023-01-29T11:28:47.645Z,14.13
2023-01-29T11:31:37.156Z,15.65
2023-01-29T11:34:19.662Z,16.85
2023-01-29T11:36:47.050Z,16.38
2023-01-29T11:44:34.763Z,16.25
2023-01-29T11:47:31.166Z,15.40
2023-01-29T11:50:01.536Z,16.20
2023-01-29T11:52:37.464Z,20.80
2023-01-29T11:57:41.792Z,19.73
2023-01-29T12:00:38.237Z,17.17
2023-01-29T12:03:23.237Z,15.35
2023-01-29T12:05:58.430Z,18.08
2023-01-29T12:08:28.655Z,16.23
2023-01-29T12:11:24.830Z,21.23
2023-01-29T12:13:56.349Z,18.10
2023-01-29T12:16:49.045Z,14.60
2023-01-29T12:22:02.958Z,16.45
2023-01-29T12:27:49.565Z,17.13
2023-01-29T13:44:49.398Z,25.50
2023-01-29T13:50:01.410Z,22.83
2023-01-29T14:15:42.171Z,24.25
2023-01-29T14:18:09.184Z,22.13
2023-01-29T14:20:48.165Z,29.85
2023-01-29T14:23:30.656Z,31.38
2023-01-29T14:26:00.164Z,25.55
2023-01-29T14:28:30.755Z,21.90
2023-01-29T14:30:58.330Z,22.20
2023-01-29T14:33:41.861Z,21.58
2023-01-29T14:36:13.472Z,23.92
2023-01-29T14:38:46.603Z,24.35
2023-01-29T14:41:28.817Z,22.63
2023-01-29T14:44:33.268Z,23.38
2023-01-29T14:47:00.243Z,20.77
2023-01-29T14:49:49.536Z,22.95
2023-01-29T14:57:16.859Z,24.20
2023-01-29T15:04:58.134Z,25.70
2023-01-29T15:07:38.595Z,24.97
2023-01-29T15:10:23.201Z,28.65
2023-01-29T15:13:03.419Z,26.33
2023-01-29T15:15:48.937Z,26.00
2023-01-29T15:18:20.667Z,25.13
2023-01-29T15:20:47.710Z,27.55
2023-01-29T15:23:33.843Z,27.63
2023-01-29T15:26:04.266Z,26.00
2023-01-29T15:28:33.450Z,24.85
2023-01-29T15:48:37.934Z,29.63
2023-01-29T15:51:10.400Z,32.92
2023-01-29T15:53:49.373Z,37.45
2023-01-29T15:56:20.067Z,34.08
2023-01-29T15:58:51.954Z,32.80
2023-01-29T16:01:19.172Z,31.33
2023-01-29T16:03:50.037Z,36.40
2023-01-29T16:06:17.189Z,32.67
2023-01-29T16:08:49.660Z,33.97
2023-01-29T16:11:18.995Z,31.08
2023-01-29T16:13:50.037Z,36.05
2023-01-29T16:16:21.960Z,35.05
2023-01-29T16:19:00.055Z,34.42
2023-01-29T16:21:35.558Z,32.53
2023-01-29T16:24:06.258Z,36.45
2023-01-29T16:26:37.529Z,40.53
2023-01-29T16:29:11.253Z,40.88
2023-01-29T16:31:39.815Z,43.45
2023-01-29T16:34:19.917Z,45.13
2023-01-29T16:36:49.106Z,40.55
2023-01-29T16:39:25.053Z,38.47
2023-01-29T16:42:17.560Z,34.83
2023-01-29T16:45:02.773Z,42.50
2023-01-29T16:47:43.725Z,42.97
2023-01-29T16:50:53.947Z,45.53
2023-01-29T16:53:24.634Z,44.55
2023-01-29T16:55:52.628Z,38.22
2023-01-29T16:58:24.665Z,52.22
2023-01-29T17:01:09.267Z,52.05
2023-01-29T17:03:37.439Z,41.80
2023-01-29T17:06:21.171Z,43.15
2023-01-29T17:08:48.453Z,38.83
2023-01-29T17:11:30.721Z,43.05
2023-01-29T17:13:58.159Z,43.05
2023-01-29T17:16:33.910Z,43.08
2023-01-29T17:19:01.380Z,48.50
2023-01-29T17:21:30.461Z,45.20
2023-01-29T17:23:57.346Z,43.80
2023-01-29T17:26:24.957Z,45.80
2023-01-29T17:28:53.489Z,46.42
2023-01-29T17:31:21.664Z,42.67
2023-01-29T17:33:48.663Z,42.53
2023-01-29T17:36:17.374Z,54.05
2023-01-29T17:38:44.977Z,47.88
2023-01-29T17:41:30.509Z,50.95
2023-01-29T17:43:57.485Z,44.28
2023-01-29T17:46:24.513Z,50.38
2023-01-29T17:48:52.373Z,43.78
2023-01-29T17:51:19.306Z,51.72
2023-01-29T17:53:47.353Z,45.75
2023-01-29T17:56:32.440Z,47.47
2023-01-29T17:58:59.639Z,43.97
2023-01-29T18:01:26.682Z,43.25
2023-01-29T18:03:53.657Z,51.15
2023-01-29T18:06:28.394Z,47.90
2023-01-29T18:08:56.505Z,50.08
2023-01-29T18:11:23.556Z,50.55
2023-01-29T18:13:50.578Z,42.88
2023-01-29T18:16:22.164Z,48.05
2023-01-29T18:18:50.897Z,49.45
2023-01-29T18:21:18.070Z,47.83
2023-01-29T18:23:45.024Z,47.17
2023-01-29T18:26:16.927Z,44.20
2023-01-29T18:28:43.943Z,42.72
2023-01-29T18:31:13.042Z,45.40
2023-01-29T18:33:40.841Z,46.38
2023-01-29T18:36:08.401Z,44.45
2023-01-29T18:38:35.421Z,50.45
2023-01-29T18:41:11.420Z,53.80
2023-01-29T18:43:39.377Z,56.60
2023-01-29T18:46:07.525Z,46.28
2023-01-29T18:48:35.409Z,50.80
2023-01-29T18:51:02.342Z,42.53
2023-01-29T18:53:29.251Z,49.03
2023-01-29T18:56:04.227Z,43.80
2023-01-29T18:58:35.011Z,48.25
2023-01-29T19:01:09.428Z,75.32
2023-01-29T19:03:37.403Z,49.25
2023-01-29T19:06:06.370Z,47.85
2023-01-29T19:08:33.748Z,49.15
2023-01-29T19:11:03.890Z,54.47
2023-01-29T19:13:31.877Z,58.67
2023-01-29T19:15:59.132Z,56.30
2023-01-29T19:18:26.891Z,57.47
2023-01-29T19:20:54.822Z,51.13
2023-01-29T19:23:22.135Z,45.17
2023-01-29T19:25:49.106Z,50.75
2023-01-29T19:28:16.085Z,53.28
2023-01-29T19:30:43.176Z,50.42
2023-01-29T19:33:10.668Z,49.92
2023-01-29T19:35:37.656Z,51.65
2023-01-29T19:38:05.105Z,52.60
2023-01-29T19:40:32.125Z,50.50
2023-01-29T19:42:59.498Z,56.60
2023-01-29T19:45:49.183Z,58.00
2023-01-29T19:48:16.999Z,61.95
2023-01-29T19:50:43.908Z,60.33
2023-01-29T19:53:10.842Z,57.25
2023-01-29T19:55:38.596Z,58.72
2023-01-29T19:58:05.526Z,71.43
2023-01-29T20:00:32.554Z,57.85
2023-01-29T20:02:59.523Z,52.53
2023-01-29T20:05:27.170Z,51.35
2023-01-29T20:07:54.502Z,61.17
2023-01-29T20:10:21.675Z,62.78
2023-01-29T20:12:48.639Z,57.65
2023-01-29T20:15:16.322Z,55.67
2023-01-29T20:17:45.607Z,51.28
2023-01-29T21:16:32.226Z,47.92
2023-01-29T21:18:59.855Z,47.40
2023-01-29T21:21:26.983Z,42.58
2023-01-29T21:23:54.312Z,43.80
2023-01-29T21:26:23.338Z,55.17
2023-01-29T21:28:50.414Z,50.35
2023-01-29T21:31:17.740Z,42.17
2023-01-29T21:33:45.037Z,42.58
2023-01-29T21:36:12.174Z,43.35
2023-01-29T21:38:39.762Z,43.13
2023-01-29T21:41:09.761Z,45.20
2023-01-29T21:43:37.837Z,43.33
2023-01-29T21:46:11.847Z,40.90
2023-01-29T21:48:39.989Z,40.17
2023-01-29T21:51:07.450Z,51.22
2023-01-29T21:53:34.972Z,42.60
2023-01-29T21:56:04.311Z,39.72
2023-01-29T21:58:32.178Z,46.20
2023-01-29T22:01:35.125Z,42.42
2023-01-29T22:03:47.417Z,43.38
2023-01-29T22:06:15.172Z,47.33
2023-01-29T22:08:42.128Z,40.92
2023-01-29T22:11:10.050Z,38.97
2023-01-29T22:13:37.179Z,34.53
2023-01-29T22:16:06.001Z,34.92
2023-01-29T22:18:33.726Z,32.15
2023-01-29T22:21:02.933Z,39.03
2023-01-29T22:23:31.035Z,32.30
2023-01-29T22:26:05.813Z,30.67
2023-01-29T22:28:32.746Z,38.10
2023-01-29T22:31:04.097Z,37.00
2023-01-29T22:33:31.400Z,33.72
2023-01-29T22:35:58.291Z,37.58
2023-01-29T22:38:25.492Z,36.25
2023-01-29T22:40:53.977Z,37.08
2023-01-29T22:43:21.526Z,35.25
2023-01-29T22:45:48.696Z,36.85
2023-01-29T22:48:15.809Z,29.63
2023-01-29T22:50:42.780Z,36.72
2023-01-29T22:53:09.863Z,31.67
2023-01-29T22:55:36.769Z,32.65
2023-01-29T22:58:03.640Z,33.20
2023-01-29T23:00:30.557Z,45.20
2023-01-29T23:02:57.533Z,32.53
2023-01-29T23:05:24.550Z,32.03
2023-01-29T23:07:51.514Z,35.63
2023-01-29T23:10:18.819Z,31.33
2023-01-29T23:12:45.895Z,34.35
2023-01-29T23:15:12.817Z,28.95
2023-01-29T23:17:39.820Z,28.52
2023-01-29T23:20:08.294Z,30.60
2023-01-29T23:22:35.409Z,25.77
2023-01-29T23:25:02.836Z,25.98
2023-01-29T23:27:29.805Z,32.75
2023-01-29T23:29:56.691Z,24.35
2023-01-29T23:32:23.696Z,29.08
2023-01-29T23:34:50.584Z,22.27
2023-01-29T23:37:17.501Z,24.33
2023-01-29T23:39:44.420Z,25.45
2023-01-29T23:42:11.308Z,23.05
2023-01-29T23:44:40.171Z,29.75
2023-01-29T23:47:07.755Z,22.88
2023-01-29T23:49:34.947Z,20.42
2023-01-29T23:52:02.259Z,21.67
2023-01-29T23:54:29.285Z,20.40
2023-01-29T23:56:56.200Z,29.02
2023-01-29T23:59:23.163Z,21.48
